sensor_id;sensor_type;location;lat;lon;timestamp;pressure;altitude;pressure_sealevel;temperature;humidity
28630;BME280;15817;42.130;24.762;2023-04-09T00:00:25;100257.06;;;10.62;96.79
28630;BME280;15817;42.130;24.762;2023-04-09T00:02:57;100258.84;;;10.48;96.85
28630;BME280;15817;42.130;24.762;2023-04-09T00:05:23;100270.38;;;10.55;96.84
28630;BME280;15817;42.130;24.762;2023-04-09T00:08:01;100256.19;;;10.45;96.97
28630;BME280;15817;42.130;24.762;2023-04-09T00:10:29;100250.88;;;10.34;97.44
28630;BME280;15817;42.130;24.762;2023-04-09T00:13:14;100261.50;;;10.36;97.60
28630;BME280;15817;42.130;24.762;2023-04-09T00:15:49;100265.94;;;10.38;97.46
28630;BME280;15817;42.130;24.762;2023-04-09T00:18:21;100276.56;;;10.40;96.95
28630;BME280;15817;42.130;24.762;2023-04-09T00:20:47;100273.91;;;10.37;97.27
28630;BME280;15817;42.130;24.762;2023-04-09T00:23:23;100264.16;;;10.25;97.39
28630;BME280;15817;42.130;24.762;2023-04-09T00:26:04;100266.81;;;10.22;97.48
28630;BME280;15817;42.130;24.762;2023-04-09T00:28:43;100276.53;;;10.29;97.69
28630;BME280;15817;42.130;24.762;2023-04-09T00:31:20;100267.66;;;10.27;97.60
28630;BME280;15817;42.130;24.762;2023-04-09T00:33:49;100267.66;;;10.27;97.22
28630;BME280;15817;42.130;24.762;2023-04-09T00:36:15;100280.97;;;10.27;97.38
28630;BME280;15817;42.130;24.762;2023-04-09T00:38:43;100275.63;;;10.15;97.48
28630;BME280;15817;42.130;24.762;2023-04-09T00:41:18;100274.72;;;10.11;98.30
28630;BME280;15817;42.130;24.762;2023-04-09T00:46:37;100280.03;;;10.13;98.22
28630;BME280;15817;42.130;24.762;2023-04-09T00:49:12;100280.94;;;10.13;98.18
28630;BME280;15817;42.130;24.762;2023-04-09T00:51:45;100282.69;;;10.08;98.62
28630;BME280;15817;42.130;24.762;2023-04-09T00:54:20;100285.34;;;10.11;98.46
28630;BME280;15817;42.130;24.762;2023-04-09T00:56:52;100287.97;;;10.05;98.78
28630;BME280;15817;42.130;24.762;2023-04-09T00:59:21;100288.78;;;9.85;100.00
28630;BME280;15817;42.130;24.762;2023-04-09T01:01:51;100285.22;;;9.76;100.00
28630;BME280;15817;42.130;24.762;2023-04-09T01:04:18;100280.78;;;9.72;100.00
28630;BME280;15817;42.130;24.762;2023-04-09T01:06:50;100294.09;;;9.78;100.00
28630;BME280;15817;42.130;24.762;2023-04-09T01:09:36;100279.94;;;9.84;100.00
28630;BME280;15817;42.130;24.762;2023-04-09T01:12:25;100271.94;;;9.76;100.00
28630;BME280;15817;42.130;24.762;2023-04-09T01:17:45;100287.91;;;9.84;100.00
28630;BME280;15817;42.130;24.762;2023-04-09T01:26:12;100274.56;;;9.70;100.00
28630;BME280;15817;42.130;24.762;2023-04-09T01:28:54;100286.97;;;9.73;100.00
28630;BME280;15817;42.130;24.762;2023-04-09T01:31:27;100281.66;;;9.70;100.00
28630;BME280;15817;42.130;24.762;2023-04-09T01:34:00;100277.19;;;9.63;100.00
28630;BME280;15817;42.130;24.762;2023-04-09T01:36:27;100293.16;;;9.64;100.00
28630;BME280;15817;42.130;24.762;2023-04-09T01:38:59;100290.47;;;9.57;100.00
28630;BME280;15817;42.130;24.762;2023-04-09T01:41:30;100288.66;;;9.53;100.00
28630;BME280;15817;42.130;24.762;2023-04-09T01:43:59;100284.19;;;9.42;100.00
28630;BME280;15817;42.130;24.762;2023-04-09T01:46:27;100284.22;;;9.46;100.00
28630;BME280;15817;42.130;24.762;2023-04-09T01:48:54;100300.19;;;9.55;100.00
28630;BME280;15817;42.130;24.762;2023-04-09T01:51:21;100299.28;;;9.51;100.00
28630;BME280;15817;42.130;24.762;2023-04-09T01:53:50;100296.56;;;9.47;100.00
28630;BME280;15817;42.130;24.762;2023-04-09T01:56:20;100294.78;;;9.39;100.00
28630;BME280;15817;42.130;24.762;2023-04-09T01:58:52;100296.53;;;9.31;100.00
28630;BME280;15817;42.130;24.762;2023-04-09T02:01:32;100303.59;;;9.35;100.00
28630;BME280;15817;42.130;24.762;2023-04-09T02:04:10;100305.38;;;9.38;100.00
28630;BME280;15817;42.130;24.762;2023-04-09T02:09:30;100304.53;;;9.42;100.00
28630;BME280;15817;42.130;24.762;2023-04-09T02:12:00;100300.06;;;9.36;100.00
28630;BME280;15817;42.130;24.762;2023-04-09T02:14:31;100300.91;;;9.29;100.00
28630;BME280;15817;42.130;24.762;2023-04-09T02:16:59;100300.91;;;9.29;100.00
28630;BME280;15817;42.130;24.762;2023-04-09T02:19:40;100303.63;;;9.38;100.00
28630;BME280;15817;42.130;24.762;2023-04-09T02:22:10;100308.94;;;9.40;100.00
28630;BME280;15817;42.130;24.762;2023-04-09T02:24:36;100309.88;;;9.43;100.00
28630;BME280;15817;42.130;24.762;2023-04-09T02:27:05;100313.44;;;9.50;100.00
28630;BME280;15817;42.130;24.762;2023-04-09T02:29:34;100295.66;;;9.37;100.00
28630;BME280;15817;42.130;24.762;2023-04-09T02:32:00;100307.16;;;9.33;100.00
28630;BME280;15817;42.130;24.762;2023-04-09T02:34:26;100304.47;;;9.30;100.00
28630;BME280;15817;42.130;24.762;2023-04-09T02:36:55;100309.78;;;9.31;100.00
28630;BME280;15817;42.130;24.762;2023-04-09T02:39:26;100293.66;;;9.02;100.00
28630;BME280;15817;42.130;24.762;2023-04-09T02:41:55;100312.31;;;9.13;100.00
28630;BME280;15817;42.130;24.762;2023-04-09T02:44:28;100310.59;;;9.18;100.00
28630;BME280;15817;42.130;24.762;2023-04-09T02:46:55;100307.94;;;9.18;100.00
28630;BME280;15817;42.130;24.762;2023-04-09T02:49:21;100319.47;;;9.26;100.00
28630;BME280;15817;42.130;24.762;2023-04-09T02:51:47;100306.19;;;9.25;100.00
28630;BME280;15817;42.130;24.762;2023-04-09T02:54:13;100310.59;;;9.20;100.00
28630;BME280;15817;42.130;24.762;2023-04-09T02:56:40;100301.78;;;9.25;100.00
28630;BME280;15817;42.130;24.762;2023-04-09T02:59:05;100319.38;;;9.14;100.00
28630;BME280;15817;42.130;24.762;2023-04-09T03:01:31;100317.56;;;9.04;100.00
28630;BME280;15817;42.130;24.762;2023-04-09T03:03:59;100316.59;;;8.94;100.00
28630;BME280;15817;42.130;24.762;2023-04-09T03:06:25;100318.41;;;9.00;100.00
28630;BME280;15817;42.130;24.762;2023-04-09T03:08:51;100308.69;;;9.03;100.00
28630;BME280;15817;42.130;24.762;2023-04-09T03:11:28;100314.03;;;9.06;100.00
28630;BME280;15817;42.130;24.762;2023-04-09T03:13:55;100314.94;;;9.13;100.00
28630;BME280;15817;42.130;24.762;2023-04-09T03:16:23;100306.13;;;9.16;100.00
28630;BME280;15817;42.130;24.762;2023-04-09T03:18:54;100309.69;;;9.18;100.00
28630;BME280;15817;42.130;24.762;2023-04-09T03:21:29;100311.50;;;9.22;100.00
28630;BME280;15817;42.130;24.762;2023-04-09T03:23:56;100299.00;;;9.07;100.00
28630;BME280;15817;42.130;24.762;2023-04-09T03:26:22;100313.16;;;9.06;100.00
28630;BME280;15817;42.130;24.762;2023-04-09T03:28:49;100311.34;;;9.03;100.00
28630;BME280;15817;42.130;24.762;2023-04-09T03:31:15;100306.09;;;9.06;100.00
28630;BME280;15817;42.130;24.762;2023-04-09T03:33:42;100315.88;;;9.15;100.00
28630;BME280;15817;42.130;24.762;2023-04-09T03:36:09;100314.94;;;9.08;100.00
28630;BME280;15817;42.130;24.762;2023-04-09T03:38:55;100318.50;;;9.15;100.00
28630;BME280;15817;42.130;24.762;2023-04-09T03:41:29;100314.09;;;9.16;100.00
28630;BME280;15817;42.130;24.762;2023-04-09T03:43:57;100313.22;;;9.17;100.00
28630;BME280;15817;42.130;24.762;2023-04-09T03:46:27;100320.34;;;9.21;100.00
28630;BME280;15817;42.130;24.762;2023-04-09T03:48:55;100322.03;;;9.14;100.00
28630;BME280;15817;42.130;24.762;2023-04-09T03:51:27;100323.78;;;9.12;100.00
28630;BME280;15817;42.130;24.762;2023-04-09T03:53:56;100323.72;;;9.03;100.00
28630;BME280;15817;42.130;24.762;2023-04-09T03:56:25;100331.75;;;9.12;100.00
28630;BME280;15817;42.130;24.762;2023-04-09T03:58:51;100336.16;;;9.08;100.00
28630;BME280;15817;42.130;24.762;2023-04-09T04:01:35;100329.97;;;9.08;100.00
28630;BME280;15817;42.130;24.762;2023-04-09T04:04:07;100339.72;;;9.14;100.00
28630;BME280;15817;42.130;24.762;2023-04-09T04:06:42;100340.56;;;9.06;100.00
28630;BME280;15817;42.130;24.762;2023-04-09T04:09:30;100343.25;;;9.08;100.00
28630;BME280;15817;42.130;24.762;2023-04-09T04:12:06;100336.16;;;9.12;100.00
28630;BME280;15817;42.130;24.762;2023-04-09T04:14:53;100340.59;;;9.10;100.00
28630;BME280;15817;42.130;24.762;2023-04-09T04:17:26;100333.34;;;8.89;100.00
28630;BME280;15817;42.130;24.762;2023-04-09T04:19:53;100342.19;;;8.86;100.00
28630;BME280;15817;42.130;24.762;2023-04-09T04:22:25;100339.44;;;8.79;100.00
28630;BME280;15817;42.130;24.762;2023-04-09T04:24:53;100351.03;;;8.90;100.00
28630;BME280;15817;42.130;24.762;2023-04-09T04:27:21;100344.00;;;8.93;100.00
28630;BME280;15817;42.130;24.762;2023-04-09T04:29:47;100344.84;;;8.88;100.00
28630;BME280;15817;42.130;24.762;2023-04-09T04:32:42;100343.75;;;8.63;100.00
28630;BME280;15817;42.130;24.762;2023-04-09T04:35:10;100352.47;;;8.54;100.00
28630;BME280;15817;42.130;24.762;2023-04-09T04:37:37;100349.09;;;8.69;100.00
28630;BME280;15817;42.130;24.762;2023-04-09T04:40:06;100350.97;;;8.82;100.00
28630;BME280;15817;42.130;24.762;2023-04-09T04:42:37;100350.09;;;8.82;100.00
28630;BME280;15817;42.130;24.762;2023-04-09T04:45:09;100352.75;;;8.83;100.00
28630;BME280;15817;42.130;24.762;2023-04-09T04:47:43;100366.13;;;8.94;100.00
28630;BME280;15817;42.130;24.762;2023-04-09T04:50:09;100356.44;;;8.97;100.00
28630;BME280;15817;42.130;24.762;2023-04-09T04:52:49;100356.41;;;8.96;100.00
28630;BME280;15817;42.130;24.762;2023-04-09T06:04:03;100389.38;;;9.27;100.00
28630;BME280;15817;42.130;24.762;2023-04-09T06:06:32;100387.66;;;9.33;100.00
28630;BME280;15817;42.130;24.762;2023-04-09T06:09:01;100382.38;;;9.38;100.00
28630;BME280;15817;42.130;24.762;2023-04-09T06:11:39;100388.56;;;9.38;100.00
28630;BME280;15817;42.130;24.762;2023-04-09T06:14:11;100385.97;;;9.43;100.00
28630;BME280;15817;42.130;24.762;2023-04-09T06:16:45;100386.88;;;9.50;100.00
28630;BME280;15817;42.130;24.762;2023-04-09T06:19:18;100381.63;;;9.54;100.00
28630;BME280;15817;42.130;24.762;2023-04-09T06:22:04;100381.63;;;9.59;100.00
28630;BME280;15817;42.130;24.762;2023-04-09T06:24:59;100384.28;;;9.60;100.00
28630;BME280;15817;42.130;24.762;2023-04-09T06:27:43;100371.94;;;9.64;100.00
28630;BME280;15817;42.130;24.762;2023-04-09T06:30:16;100371.06;;;9.65;100.00
28630;BME280;15817;42.130;24.762;2023-04-09T06:32:44;100372.88;;;9.69;100.00
28630;BME280;15817;42.130;24.762;2023-04-09T06:35:17;100386.09;;;9.63;100.00
28630;BME280;15817;42.130;24.762;2023-04-09T06:37:46;100382.50;;;9.59;100.00
28630;BME280;15817;42.130;24.762;2023-04-09T06:40:20;100386.13;;;9.67;100.00
28630;BME280;15817;42.130;24.762;2023-04-09T06:42:47;100383.47;;;9.69;100.00
28630;BME280;15817;42.130;24.762;2023-04-09T06:45:20;100371.91;;;9.61;100.00
28630;BME280;15817;42.130;24.762;2023-04-09T06:47:52;100374.56;;;9.56;100.00
28630;BME280;15817;42.130;24.762;2023-04-09T06:50:23;100372.81;;;9.64;100.00
28630;BME280;15817;42.130;24.762;2023-04-09T06:52:56;100378.16;;;9.72;100.00
28630;BME280;15817;42.130;24.762;2023-04-09T06:55:36;100391.53;;;9.86;100.00
28630;BME280;15817;42.130;24.762;2023-04-09T06:58:05;100387.94;;;9.77;100.00
28630;BME280;15817;42.130;24.762;2023-04-09T07:00:33;100403.00;;;9.78;100.00
28630;BME280;15817;42.130;24.762;2023-04-09T07:03:05;100389.72;;;9.77;100.00
28630;BME280;15817;42.130;24.762;2023-04-09T07:05:42;100391.50;;;9.78;100.00
28630;BME280;15817;42.130;24.762;2023-04-09T07:08:26;100382.69;;;9.87;100.00
28630;BME280;15817;42.130;24.762;2023-04-09T07:10:53;100387.13;;;9.94;100.00
28630;BME280;15817;42.130;24.762;2023-04-09T07:13:24;100388.97;;;10.02;100.00
28630;BME280;15817;42.130;24.762;2023-04-09T07:15:55;100395.16;;;10.01;100.00
28630;BME280;15817;42.130;24.762;2023-04-09T07:18:24;100388.97;;;10.08;100.00
28630;BME280;15817;42.130;24.762;2023-04-09T07:21:21;100400.59;;;10.21;99.82
28630;BME280;15817;42.130;24.762;2023-04-09T07:27:27;100386.44;;;10.28;98.50
28630;BME280;15817;42.130;24.762;2023-04-09T07:29:57;100382.91;;;10.31;98.23
28630;BME280;15817;42.130;24.762;2023-04-09T07:32:33;100377.59;;;10.40;97.43
28630;BME280;15817;42.130;24.762;2023-04-09T07:35:10;100380.31;;;10.58;96.81
28630;BME280;15817;42.130;24.762;2023-04-09T07:37:44;100378.59;;;10.87;95.25
28630;BME280;15817;42.130;24.762;2023-04-09T07:40:10;100380.38;;;10.93;94.78
28630;BME280;15817;42.130;24.762;2023-04-09T07:42:41;100375.94;;;11.00;93.81
28630;BME280;15817;42.130;24.762;2023-04-09T07:45:15;100386.59;;;11.03;92.93
28630;BME280;15817;42.130;24.762;2023-04-09T07:48:11;100380.34;;;10.96;93.31
28630;BME280;15817;42.130;24.762;2023-04-09T07:50:37;100381.25;;;10.92;93.29
28630;BME280;15817;42.130;24.762;2023-04-09T07:53:03;100383.03;;;10.90;93.13
28630;BME280;15817;42.130;24.762;2023-04-09T07:55:29;100382.13;;;10.97;93.09
28630;BME280;15817;42.130;24.762;2023-04-09T07:57:57;100384.84;;;11.06;92.42
28630;BME280;15817;42.130;24.762;2023-04-09T08:00:28;100388.34;;;11.08;91.77
28630;BME280;15817;42.130;24.762;2023-04-09T08:03:01;100380.38;;;11.14;91.99
28630;BME280;15817;42.130;24.762;2023-04-09T08:05:28;100381.25;;;11.41;91.17
28630;BME280;15817;42.130;24.762;2023-04-09T08:07:55;100383.94;;;11.38;89.87
28630;BME280;15817;42.130;24.762;2023-04-09T08:10:28;100388.31;;;11.86;87.98
28630;BME280;15817;42.130;24.762;2023-04-09T08:12:59;100387.25;;;12.26;85.08
28630;BME280;15817;42.130;24.762;2023-04-09T08:15:25;100383.38;;;12.84;82.23
28630;BME280;15817;42.130;24.762;2023-04-09T08:17:51;100387.72;;;12.97;79.75
28630;BME280;15817;42.130;24.762;2023-04-09T08:20:17;100385.41;;;12.42;80.16
28630;BME280;15817;42.130;24.762;2023-04-09T08:22:43;100391.78;;;12.05;81.65
28630;BME280;15817;42.130;24.762;2023-04-09T08:25:15;100385.66;;;11.83;83.03
28630;BME280;15817;42.130;24.762;2023-04-09T08:27:46;100385.66;;;11.78;84.71
28630;BME280;15817;42.130;24.762;2023-04-09T08:30:18;100397.19;;;11.79;84.29
28630;BME280;15817;42.130;24.762;2023-04-09T08:32:46;100392.75;;;11.78;85.95
28630;BME280;15817;42.130;24.762;2023-04-09T08:35:15;100385.66;;;11.80;84.32
28630;BME280;15817;42.130;24.762;2023-04-09T08:37:41;100384.75;;;11.84;81.99
28630;BME280;15817;42.130;24.762;2023-04-09T08:40:10;100386.50;;;11.91;82.18
28630;BME280;15817;42.130;24.762;2023-04-09T08:42:43;100388.16;;;12.24;81.23
28630;BME280;15817;42.130;24.762;2023-04-09T08:45:12;100388.25;;;12.09;82.24
28630;BME280;15817;42.130;24.762;2023-04-09T08:47:51;100382.00;;;12.07;83.83
28630;BME280;15817;42.130;24.762;2023-04-09T08:50:19;100379.81;;;12.83;79.70
28630;BME280;15817;42.130;24.762;2023-04-09T08:52:46;100366.22;;;13.20;77.58
28630;BME280;15817;42.130;24.762;2023-04-09T08:55:20;100373.22;;;13.34;76.53
28630;BME280;15817;42.130;24.762;2023-04-09T08:57:51;100376.78;;;13.32;75.21
28630;BME280;15817;42.130;24.762;2023-04-09T09:00:20;100382.81;;;13.54;73.82
28630;BME280;15817;42.130;24.762;2023-04-09T09:05:38;100371.53;;;13.23;75.21
28630;BME280;15817;42.130;24.762;2023-04-09T09:08:06;100375.19;;;13.10;76.04
28630;BME280;15817;42.130;24.762;2023-04-09T09:10:39;100378.91;;;12.90;76.67
28630;BME280;15817;42.130;24.762;2023-04-09T09:16:24;100370.91;;;12.86;77.00
28630;BME280;15817;42.130;24.762;2023-04-09T09:18:57;100375.34;;;12.90;76.80
28630;BME280;15817;42.130;24.762;2023-04-09T09:21:57;100368.34;;;13.73;74.88
28630;BME280;15817;42.130;24.762;2023-04-09T09:24:31;100370.56;;;14.16;71.02
28630;BME280;15817;42.130;24.762;2023-04-09T09:27:08;100358.66;;;13.64;72.60
28630;BME280;15817;42.130;24.762;2023-04-09T09:29:39;100366.88;;;13.45;73.01
28630;BME280;15817;42.130;24.762;2023-04-09T09:32:14;100361.59;;;13.38;73.45
28630;BME280;15817;42.130;24.762;2023-04-09T09:35:02;100341.47;;;13.88;71.65
28630;BME280;15817;42.130;24.762;2023-04-09T09:37:29;100345.63;;;14.10;68.88
28630;BME280;15817;42.130;24.762;2023-04-09T09:43:05;100336.22;;;13.81;67.76
28630;BME280;15817;42.130;24.762;2023-04-09T09:45:38;100343.50;;;14.41;66.22
28630;BME280;15817;42.130;24.762;2023-04-09T09:48:04;100343.41;;;14.47;66.45
28630;BME280;15817;42.130;24.762;2023-04-09T09:50:34;100338.22;;;14.32;66.51
28630;BME280;15817;42.130;24.762;2023-04-09T09:53:09;100326.03;;;14.76;65.60
28630;BME280;15817;42.130;24.762;2023-04-09T09:55:40;100329.72;;;15.23;63.63
28630;BME280;15817;42.130;24.762;2023-04-09T10:00:53;100328.78;;;15.74;60.65
28630;BME280;15817;42.130;24.762;2023-04-09T10:03:24;100335.91;;;15.75;59.85
28630;BME280;15817;42.130;24.762;2023-04-09T10:05:51;100330.63;;;15.71;59.09
28630;BME280;15817;42.130;24.762;2023-04-09T10:08:21;100330.28;;;15.89;60.26
28630;BME280;15817;42.130;24.762;2023-04-09T10:10:49;100327.16;;;16.09;59.01
28630;BME280;15817;42.130;24.762;2023-04-09T10:13:40;100310.00;;;16.16;58.78
28630;BME280;15817;42.130;24.762;2023-04-09T10:16:11;100312.91;;;16.47;58.39
28630;BME280;15817;42.130;24.762;2023-04-09T10:18:37;100315.00;;;16.34;57.84
28630;BME280;15817;42.130;24.762;2023-04-09T10:21:30;100313.00;;;16.42;55.78
28630;BME280;15817;42.130;24.762;2023-04-09T10:24:00;100308.34;;;16.50;54.24
28630;BME280;15817;42.130;24.762;2023-04-09T10:26:34;100312.25;;;16.37;52.57
28630;BME280;15817;42.130;24.762;2023-04-09T10:29:04;100294.16;;;16.05;55.90
28630;BME280;15817;42.130;24.762;2023-04-09T10:31:47;100284.00;;;16.19;55.94
28630;BME280;15817;42.130;24.762;2023-04-09T10:34:23;100286.47;;;16.28;57.58
28630;BME280;15817;42.130;24.762;2023-04-09T10:36:54;100279.84;;;16.05;57.72
28630;BME280;15817;42.130;24.762;2023-04-09T10:39:29;100277.50;;;15.89;58.51
28630;BME280;15817;42.130;24.762;2023-04-09T10:42:00;100270.56;;;15.79;59.44
28630;BME280;15817;42.130;24.762;2023-04-09T10:44:29;100266.63;;;15.51;60.03
28630;BME280;15817;42.130;24.762;2023-04-09T10:47:02;100266.28;;;15.69;58.95
28630;BME280;15817;42.130;24.762;2023-04-09T10:49:43;100262.66;;;15.72;58.14
28630;BME280;15817;42.130;24.762;2023-04-09T10:52:10;100272.19;;;15.86;55.30
28630;BME280;15817;42.130;24.762;2023-04-09T10:54:43;100262.47;;;16.22;54.71
28630;BME280;15817;42.130;24.762;2023-04-09T10:57:14;100254.13;;;16.35;52.61
28630;BME280;15817;42.130;24.762;2023-04-09T10:59:46;100251.00;;;16.53;52.46
28630;BME280;15817;42.130;24.762;2023-04-09T11:05:23;100255.22;;;16.64;47.73
28630;BME280;15817;42.130;24.762;2023-04-09T11:08:12;100248.16;;;16.60;47.00
28630;BME280;15817;42.130;24.762;2023-04-09T11:10:40;100238.66;;;16.83;46.84
28630;BME280;15817;42.130;24.762;2023-04-09T11:13:10;100231.91;;;17.00;46.11
28630;BME280;15817;42.130;24.762;2023-04-09T11:15:38;100232.69;;;17.06;45.88
28630;BME280;15817;42.130;24.762;2023-04-09T11:18:07;100233.47;;;16.75;45.19
28630;BME280;15817;42.130;24.762;2023-04-09T11:20:39;100218.56;;;16.62;46.03
28630;BME280;15817;42.130;24.762;2023-04-09T11:23:05;100222.63;;;16.80;45.53
28630;BME280;15817;42.130;24.762;2023-04-09T11:25:36;100222.31;;;16.92;45.29
28630;BME280;15817;42.130;24.762;2023-04-09T11:28:03;100216.91;;;16.93;44.63
28630;BME280;15817;42.130;24.762;2023-04-09T11:30:33;100214.31;;;16.89;44.60
28630;BME280;15817;42.130;24.762;2023-04-09T11:32:59;100214.31;;;16.89;45.37
28630;BME280;15817;42.130;24.762;2023-04-09T11:35:29;100198.88;;;16.97;45.59
28630;BME280;15817;42.130;24.762;2023-04-09T11:37:54;100193.38;;;17.01;45.10
28630;BME280;15817;42.130;24.762;2023-04-09T11:40:25;100197.13;;;16.96;44.20
28630;BME280;15817;42.130;24.762;2023-04-09T11:42:54;100196.06;;;17.01;43.68
28630;BME280;15817;42.130;24.762;2023-04-09T11:45:27;100185.75;;;16.85;44.32
28630;BME280;15817;42.130;24.762;2023-04-09T11:47:53;100189.25;;;16.88;43.89
28630;BME280;15817;42.130;24.762;2023-04-09T11:50:20;100181.13;;;16.91;44.04
28630;BME280;15817;42.130;24.762;2023-04-09T11:52:49;100179.91;;;17.03;44.51
28630;BME280;15817;42.130;24.762;2023-04-09T11:55:33;100178.81;;;17.10;44.56
28630;BME280;15817;42.130;24.762;2023-04-09T11:57:59;100184.13;;;17.12;43.58
28630;BME280;15817;42.130;24.762;2023-04-09T12:00:39;100174.34;;;17.09;43.88
28630;BME280;15817;42.130;24.762;2023-04-09T12:03:05;100162.78;;;17.07;43.00
28630;BME280;15817;42.130;24.762;2023-04-09T12:05:34;100167.34;;;17.04;41.96
28630;BME280;15817;42.130;24.762;2023-04-09T12:08:06;100167.13;;;17.11;41.68
28630;BME280;15817;42.130;24.762;2023-04-09T12:10:37;100156.06;;;17.22;41.29
28630;BME280;15817;42.130;24.762;2023-04-09T12:13:09;100167.06;;;17.14;42.09
28630;BME280;15817;42.130;24.762;2023-04-09T12:15:37;100161.75;;;17.11;43.65
28630;BME280;15817;42.130;24.762;2023-04-09T12:18:07;100152.16;;;17.02;42.34
28630;BME280;15817;42.130;24.762;2023-04-09T12:20:39;100153.09;;;17.00;42.40
28630;BME280;15817;42.130;24.762;2023-04-09T12:23:12;100158.47;;;17.00;41.01
28630;BME280;15817;42.130;24.762;2023-04-09T12:25:40;100146.84;;;16.99;41.42
28630;BME280;15817;42.130;24.762;2023-04-09T12:28:10;100150.38;;;17.01;41.99
28630;BME280;15817;42.130;24.762;2023-04-09T12:30:38;100144.59;;;16.84;41.18
28630;BME280;15817;42.130;24.762;2023-04-09T12:33:04;100152.13;;;16.70;40.83
28630;BME280;15817;42.130;24.762;2023-04-09T12:35:30;100140.50;;;16.34;42.70
28630;BME280;15817;42.130;24.762;2023-04-09T12:38:11;100135.66;;;16.13;43.73
28630;BME280;15817;42.130;24.762;2023-04-09T12:40:40;100135.47;;;16.20;44.30
28630;BME280;15817;42.130;24.762;2023-04-09T12:43:07;100130.44;;;16.07;44.48
28630;BME280;15817;42.130;24.762;2023-04-09T12:45:41;100137.22;;;15.84;44.82
28630;BME280;15817;42.130;24.762;2023-04-09T12:48:12;100141.66;;;15.87;45.59
28630;BME280;15817;42.130;24.762;2023-04-09T12:50:40;100134.81;;;15.72;46.19
28630;BME280;15817;42.130;24.762;2023-04-09T12:53:06;100121.28;;;15.78;47.34
28630;BME280;15817;42.130;24.762;2023-04-09T12:55:37;100121.09;;;15.86;46.83
28630;BME280;15817;42.130;24.762;2023-04-09T12:58:05;100119.47;;;16.16;45.99
28630;BME280;15817;42.130;24.762;2023-04-09T13:00:34;100112.69;;;16.37;45.93
28630;BME280;15817;42.130;24.762;2023-04-09T13:03:02;100106.63;;;16.64;46.01
28630;BME280;15817;42.130;24.762;2023-04-09T13:05:36;100114.09;;;16.85;46.03
28630;BME280;15817;42.130;24.762;2023-04-09T13:08:07;100106.88;;;16.87;45.32
28630;BME280;15817;42.130;24.762;2023-04-09T13:10:38;100105.41;;;16.76;45.09
28630;BME280;15817;42.130;24.762;2023-04-09T13:13:06;100104.81;;;16.64;45.76
28630;BME280;15817;42.130;24.762;2023-04-09T13:15:37;100091.81;;;16.48;45.44
28630;BME280;15817;42.130;24.762;2023-04-09T13:18:06;100096.03;;;16.58;45.38
28630;BME280;15817;42.130;24.762;2023-04-09T13:20:35;100080.94;;;16.52;45.00
28630;BME280;15817;42.130;24.762;2023-04-09T13:23:09;100078.16;;;16.57;45.39
28630;BME280;15817;42.130;24.762;2023-04-09T13:25:35;100088.34;;;16.44;44.20
28630;BME280;15817;42.130;24.762;2023-04-09T13:28:01;100084.72;;;16.45;44.92
28630;BME280;15817;42.130;24.762;2023-04-09T13:30:27;100073.22;;;16.40;44.43
28630;BME280;15817;42.130;24.762;2023-04-09T13:32:53;100076.47;;;16.53;44.99
28630;BME280;15817;42.130;24.762;2023-04-09T13:35:18;100082.34;;;16.69;45.32
28630;BME280;15817;42.130;24.762;2023-04-09T13:37:44;100068.00;;;16.70;44.45
28630;BME280;15817;42.130;24.762;2023-04-09T13:40:10;100066.19;;;16.70;43.41
28630;BME280;15817;42.130;24.762;2023-04-09T13:42:36;100060.19;;;16.59;42.96
28630;BME280;15817;42.130;24.762;2023-04-09T13:45:03;100065.63;;;16.56;43.03
28630;BME280;15817;42.130;24.762;2023-04-09T13:47:29;100062.19;;;16.51;43.04
28630;BME280;15817;42.130;24.762;2023-04-09T13:49:55;100063.13;;;16.50;43.51
28630;BME280;15817;42.130;24.762;2023-04-09T13:52:27;100059.78;;;16.40;43.65
28630;BME280;15817;42.130;24.762;2023-04-09T13:54:53;100054.56;;;16.36;44.01
28630;BME280;15817;42.130;24.762;2023-04-09T13:57:21;100058.16;;;16.35;44.43
28630;BME280;15817;42.130;24.762;2023-04-09T13:59:47;100049.44;;;16.26;44.94
28630;BME280;15817;42.130;24.762;2023-04-09T14:02:16;100048.88;;;16.14;45.42
28630;BME280;15817;42.130;24.762;2023-04-09T14:04:45;100054.09;;;16.18;45.68
28630;BME280;15817;42.130;24.762;2023-04-09T14:07:13;100061.56;;;16.07;45.26
28630;BME280;15817;42.130;24.762;2023-04-09T14:09:39;100055.47;;;16.01;46.55
28630;BME280;15817;42.130;24.762;2023-04-09T14:12:08;100056.31;;;16.03;47.16
28630;BME280;15817;42.130;24.762;2023-04-09T14:14:51;100060.84;;;16.01;46.66
28630;BME280;15817;42.130;24.762;2023-04-09T14:17:38;100047.75;;;15.87;47.00
28630;BME280;15817;42.130;24.762;2023-04-09T14:20:20;100042.34;;;15.88;46.80
28630;BME280;15817;42.130;24.762;2023-04-09T14:22:51;100033.41;;;15.89;46.99
28630;BME280;15817;42.130;24.762;2023-04-09T14:25:17;100036.06;;;15.89;47.16
28630;BME280;15817;42.130;24.762;2023-04-09T14:27:45;100032.31;;;15.97;47.48
28630;BME280;15817;42.130;24.762;2023-04-09T14:30:14;100025.94;;;16.02;47.55
28630;BME280;15817;42.130;24.762;2023-04-09T14:32:44;100035.78;;;16.02;46.71
28630;BME280;15817;42.130;24.762;2023-04-09T14:35:10;100026.75;;;16.04;46.75
28630;BME280;15817;42.130;24.762;2023-04-09T14:37:41;100032.25;;;16.00;47.74
28630;BME280;15817;42.130;24.762;2023-04-09T14:40:16;100034.97;;;15.98;47.68
28630;BME280;15817;42.130;24.762;2023-04-09T14:42:45;100026.94;;;15.97;48.04